Time;durP1;ratioP1;P1;durP2;ratioP2;P2;SDS_P1;SDS_P2;PMS_P1;PMS_P2;Temp;Humidity;BMP_temperature;BMP_pressure;BME280_temperature;BME280_humidity;BME280_pressure;Samples;Min_cycle;Max_cycle;Signal;HPM_P1;HPM_P2
2022/12/04 00:02:51;;;;;;;46.27;21.83;;;;;;;;;;6580997;28;20646;-84
2022/12/04 00:06:05;;;;;;;57.40;21.13;;;;;;;;;;6598436;28;20165;-86
2022/12/04 00:09:15;;;;;;;59.30;24.30;;;;;;;;;;6598363;28;20191;-86
2022/12/04 00:12:25;;;;;;;67.37;21.23;;;;;;;;;;6598310;28;20169;-86
2022/12/04 00:15:39;;;;;;;57.03;23.40;;;;;;;;;;6597400;28;20211;-86
2022/12/04 00:18:50;;;;;;;55.67;19.70;;;;;;;;;;6597166;28;20311;-86
2022/12/04 00:22:01;;;;;;;54.97;23.57;;;;;;;;;;6597090;28;20804;-86
2022/12/04 00:25:11;;;;;;;70.67;29.40;;;;;;;;;;6597231;28;20222;-85
2022/12/04 00:28:21;;;;;;;54.00;22.37;;;;;;;;;;6596925;28;20175;-86
2022/12/04 00:31:32;;;;;;;58.90;22.53;;;;;;;;;;6596718;28;20275;-87
2022/12/04 00:34:42;;;;;;;62.73;23.87;;;;;;;;;;6580381;28;20234;-86
2022/12/04 00:37:54;;;;;;;59.97;23.40;;;;;;;;;;6596671;28;20224;-85
2022/12/04 00:41:06;;;;;;;53.93;24.10;;;;;;;;;;6597336;28;20211;-85
2022/12/04 00:44:16;;;;;;;45.40;20.37;;;;;;;;;;6597076;28;20168;-86
2022/12/04 00:47:27;;;;;;;34.23;14.50;;;;;;;;;;6597637;28;20188;-86
2022/12/04 00:50:37;;;;;;;43.77;18.30;;;;;;;;;;6596485;28;20188;-86
2022/12/04 00:53:48;;;;;;;43.47;18.40;;;;;;;;;;6579101;28;20202;-85
2022/12/04 00:56:58;;;;;;;67.30;26.03;;;;;;;;;;6596477;28;20173;-85
2022/12/04 01:00:08;;;;;;;43.27;18.13;;;;;;;;;;6578781;28;20204;-86
2022/12/04 01:03:19;;;;;;;41.93;19.70;;;;;;;;;;6578916;28;20278;-85
2022/12/04 01:06:30;;;;;;;44.80;19.43;;;;;;;;;;6578928;28;20206;-86
2022/12/04 01:09:40;;;;;;;50.67;21.40;;;;;;;;;;6597146;28;20180;-86
2022/12/04 01:12:52;;;;;;;49.57;20.77;;;;;;;;;;6578682;28;20172;-86
2022/12/04 01:16:02;;;;;;;50.40;20.43;;;;;;;;;;6596004;28;20175;-86
2022/12/04 01:19:13;;;;;;;52.40;21.97;;;;;;;;;;6578522;28;20636;-85
2022/12/04 01:22:23;;;;;;;35.23;16.50;;;;;;;;;;6596626;28;20199;-86
2022/12/04 01:25:33;;;;;;;46.20;20.63;;;;;;;;;;6578482;28;20172;-86
2022/12/04 01:28:43;;;;;;;46.63;20.83;;;;;;;;;;6596533;28;20196;-86
2022/12/04 01:31:54;;;;;;;44.53;19.30;;;;;;;;;;6596006;28;20315;-85
2022/12/04 01:35:05;;;;;;;45.67;19.57;;;;;;;;;;6578264;28;20188;-86
2022/12/04 01:38:15;;;;;;;48.57;21.27;;;;;;;;;;6595450;28;20564;-85
2022/12/04 01:41:27;;;;;;;52.23;22.43;;;;;;;;;;6595528;28;20196;-86
2022/12/04 01:44:40;;;;;;;49.80;20.70;;;;;;;;;;6578561;28;20504;-86
2022/12/04 01:47:53;;;;;;;42.40;19.80;;;;;;;;;;6596183;28;20218;-86
2022/12/04 01:51:09;;;;;;;44.90;20.53;;;;;;;;;;6596148;28;20619;-87
2022/12/04 01:54:28;;;;;;;32.70;16.80;;;;;;;;;;6595832;28;20535;-86
2022/12/04 01:57:38;;;;;;;43.93;19.83;;;;;;;;;;6595762;28;20196;-86
2022/12/04 02:00:51;;;;;;;28.43;14.73;;;;;;;;;;6595792;28;20199;-86
2022/12/04 02:04:01;;;;;;;36.10;18.23;;;;;;;;;;6601077;28;20187;-86
2022/12/04 02:07:12;;;;;;;32.50;17.37;;;;;;;;;;6583908;28;20180;-86
2022/12/04 02:10:26;;;;;;;40.60;18.97;;;;;;;;;;6600472;28;20172;-86
2022/12/04 02:13:48;;;;;;;38.83;20.63;;;;;;;;;;6601090;28;20218;-85
2022/12/04 02:17:07;;;;;;;48.63;21.90;;;;;;;;;;6601150;28;20564;-85
2022/12/04 02:20:20;;;;;;;40.50;17.53;;;;;;;;;;6601091;28;20225;-86
2022/12/04 02:23:38;;;;;;;40.87;18.50;;;;;;;;;;6600325;28;20180;-86
2022/12/04 02:26:56;;;;;;;24.07;12.93;;;;;;;;;;6600976;28;20238;-86
2022/12/04 02:30:11;;;;;;;26.30;13.10;;;;;;;;;;6600104;28;20180;-86
2022/12/04 02:33:30;;;;;;;37.90;17.97;;;;;;;;;;6600636;28;20224;-86
2022/12/04 02:36:49;;;;;;;39.80;16.67;;;;;;;;;;6600205;28;20255;-86
2022/12/04 02:40:08;;;;;;;45.97;18.67;;;;;;;;;;6600045;28;20207;-86
2022/12/04 02:43:33;;;;;;;54.83;17.97;;;;;;;;;;6582300;28;20545;-86
2022/12/04 02:46:45;;;;;;;33.57;13.53;;;;;;;;;;6600977;28;20185;-86
2022/12/04 02:50:00;;;;;;;40.47;17.33;;;;;;;;;;6599592;28;20251;-86
2022/12/04 02:53:18;;;;;;;35.73;16.63;;;;;;;;;;6600294;28;20176;-86
2022/12/04 02:56:30;;;;;;;29.87;14.67;;;;;;;;;;6599919;28;20169;-86
2022/12/04 02:59:41;;;;;;;32.77;15.97;;;;;;;;;;6600081;28;20250;-86
2022/12/04 03:02:57;;;;;;;35.53;15.77;;;;;;;;;;6599681;28;20530;-86
2022/12/04 03:06:10;;;;;;;40.90;17.97;;;;;;;;;;6599646;28;20188;-85
2022/12/04 03:09:21;;;;;;;38.00;16.37;;;;;;;;;;6599058;28;20168;-85
2022/12/04 03:12:41;;;;;;;35.47;16.70;;;;;;;;;;6580394;28;20184;-85
2022/12/04 03:15:58;;;;;;;28.77;13.93;;;;;;;;;;6599020;28;20176;-85
2022/12/04 03:19:11;;;;;;;37.03;17.30;;;;;;;;;;6581946;28;20200;-86
2022/12/04 03:22:23;;;;;;;32.10;16.17;;;;;;;;;;6599187;28;20255;-86
2022/12/04 03:25:36;;;;;;;32.30;16.07;;;;;;;;;;6599239;28;20259;-86
2022/12/04 03:28:58;;;;;;;31.03;15.17;;;;;;;;;;6598662;28;20176;-86
2022/12/04 03:32:27;;;;;;;25.27;12.77;;;;;;;;;;6598985;28;20322;-86
2022/12/04 03:36:04;;;;;;;27.93;15.73;;;;;;;;;;6581065;28;20524;-86
2022/12/04 03:39:23;;;;;;;27.90;14.30;;;;;;;;;;6594654;28;20219;-86
2022/12/04 03:42:40;;;;;;;24.13;12.57;;;;;;;;;;6599025;28;20177;-86
2022/12/04 03:45:54;;;;;;;31.23;15.13;;;;;;;;;;6581890;28;20615;-86
2022/12/04 03:49:20;;;;;;;22.73;11.83;;;;;;;;;;6599302;28;20184;-86
2022/12/04 03:52:43;;;;;;;28.33;14.27;;;;;;;;;;6580673;28;20267;-85
2022/12/04 03:56:06;;;;;;;27.90;15.23;;;;;;;;;;6598706;28;20183;-85
2022/12/04 03:59:19;;;;;;;23.77;13.07;;;;;;;;;;6598354;28;20188;-86
2022/12/04 04:02:31;;;;;;;29.53;14.90;;;;;;;;;;6598292;28;20199;-86
2022/12/04 04:05:45;;;;;;;28.30;14.77;;;;;;;;;;6599272;28;20179;-86
2022/12/04 04:08:57;;;;;;;30.87;13.47;;;;;;;;;;6580272;28;20242;-86
2022/12/04 04:12:10;;;;;;;28.17;14.17;;;;;;;;;;6580229;28;20677;-86
2022/12/04 04:25:51;;;;;;;29.33;14.90;;;;;;;;;;6597010;28;20576;-86
2022/12/04 04:29:02;;;;;;;15.23;8.87;;;;;;;;;;6597880;28;20259;-86
2022/12/04 04:32:12;;;;;;;27.93;14.50;;;;;;;;;;6597301;28;20242;-87
2022/12/04 04:35:39;;;;;;;28.03;14.37;;;;;;;;;;6597385;28;20188;-86
2022/12/04 04:38:55;;;;;;;28.80;14.67;;;;;;;;;;6597275;28;20192;-86
2022/12/04 04:42:25;;;;;;;26.90;12.87;;;;;;;;;;6597906;28;20518;-86
2022/12/04 04:46:02;;;;;;;16.33;8.83;;;;;;;;;;6597384;28;20169;-86
2022/12/04 04:49:13;;;;;;;28.27;15.23;;;;;;;;;;6574149;28;20184;-85
2022/12/04 04:52:24;;;;;;;28.23;13.80;;;;;;;;;;6596724;28;20215;-85
2022/12/04 04:55:35;;;;;;;26.90;13.67;;;;;;;;;;6596926;28;20164;-85
2022/12/04 04:58:45;;;;;;;24.43;11.57;;;;;;;;;;6596450;28;20192;-85
2022/12/04 05:01:55;;;;;;;14.87;8.80;;;;;;;;;;6596369;28;20200;-85
2022/12/04 05:05:06;;;;;;;29.33;13.67;;;;;;;;;;6596658;28;20164;-85
2022/12/04 05:08:16;;;;;;;26.90;14.63;;;;;;;;;;6596911;28;20211;-85
2022/12/04 05:11:27;;;;;;;26.87;13.77;;;;;;;;;;6596138;28;20259;-85
2022/12/04 05:14:37;;;;;;;28.33;14.70;;;;;;;;;;6578948;28;20172;-86
2022/12/04 05:17:47;;;;;;;25.53;13.83;;;;;;;;;;6596777;28;20172;-86
2022/12/04 05:20:58;;;;;;;30.47;14.90;;;;;;;;;;6597015;28;20192;-86
2022/12/04 05:24:08;;;;;;;23.73;13.00;;;;;;;;;;6595930;28;20177;-85
2022/12/04 05:27:19;;;;;;;39.87;20.70;;;;;;;;;;6596255;28;20615;-85
2022/12/04 05:30:29;;;;;;;29.97;14.63;;;;;;;;;;6596110;28;20180;-85
2022/12/04 05:33:39;;;;;;;31.23;16.57;;;;;;;;;;6578086;28;20636;-85
2022/12/04 05:36:51;;;;;;;31.37;14.73;;;;;;;;;;6594950;28;20650;-85
2022/12/04 05:40:01;;;;;;;28.90;16.07;;;;;;;;;;6595491;28;20250;-86
2022/12/04 05:43:12;;;;;;;38.07;19.00;;;;;;;;;;6595511;28;20168;-85
2022/12/04 05:46:22;;;;;;;25.77;14.10;;;;;;;;;;6596154;28;20203;-84
2022/12/04 05:49:33;;;;;;;29.60;14.30;;;;;;;;;;6578102;28;20180;-85
2022/12/04 05:52:43;;;;;;;33.33;16.17;;;;;;;;;;6596074;28;20188;-85
2022/12/04 05:55:54;;;;;;;30.10;15.40;;;;;;;;;;6595793;28;20203;-85
2022/12/04 05:59:04;;;;;;;26.43;13.47;;;;;;;;;;6595652;28;20342;-85
2022/12/04 06:02:15;;;;;;;23.70;13.10;;;;;;;;;;6596078;28;20192;-85
2022/12/04 06:05:25;;;;;;;29.13;15.13;;;;;;;;;;6596459;28;20207;-86
2022/12/04 06:08:35;;;;;;;30.43;15.80;;;;;;;;;;6595962;28;20172;-86
2022/12/04 06:11:46;;;;;;;29.93;14.53;;;;;;;;;;6578939;28;20584;-86
2022/12/04 06:14:56;;;;;;;30.87;15.20;;;;;;;;;;6595590;28;20235;-86
2022/12/04 06:18:06;;;;;;;26.87;14.27;;;;;;;;;;6595268;28;20172;-85
2022/12/04 06:21:17;;;;;;;26.83;13.20;;;;;;;;;;6595388;28;20751;-86
2022/12/04 06:24:28;;;;;;;29.07;15.73;;;;;;;;;;6595307;28;20573;-86
2022/12/04 06:27:38;;;;;;;27.17;14.87;;;;;;;;;;6595442;28;20181;-86
2022/12/04 06:30:48;;;;;;;29.87;16.67;;;;;;;;;;6594985;28;20211;-85
2022/12/04 06:33:58;;;;;;;33.60;16.97;;;;;;;;;;6594882;28;20236;-85
2022/12/04 06:37:09;;;;;;;32.97;15.10;;;;;;;;;;6594872;28;20195;-85
2022/12/04 06:40:19;;;;;;;26.77;14.83;;;;;;;;;;6595054;28;20232;-85
2022/12/04 06:43:29;;;;;;;32.33;16.73;;;;;;;;;;6595127;28;20176;-85
2022/12/04 06:46:40;;;;;;;32.47;17.20;;;;;;;;;;6595517;28;20177;-85
2022/12/04 06:49:50;;;;;;;30.87;15.50;;;;;;;;;;6599856;28;20223;-86
2022/12/04 06:53:01;;;;;;;28.23;15.07;;;;;;;;;;6600102;28;20191;-85
2022/12/04 06:56:15;;;;;;;34.80;19.33;;;;;;;;;;6599819;28;20238;-85
2022/12/04 06:59:25;;;;;;;34.20;21.13;;;;;;;;;;6581866;28;20196;-85
2022/12/04 07:02:35;;;;;;;36.73;19.93;;;;;;;;;;6600398;28;20561;-86
2022/12/04 07:05:46;;;;;;;37.67;20.33;;;;;;;;;;6599651;28;20226;-86
2022/12/04 07:08:57;;;;;;;47.70;25.60;;;;;;;;;;6599296;28;20230;-85
2022/12/04 07:12:08;;;;;;;63.03;30.80;;;;;;;;;;6599364;28;20164;-86
2022/12/04 07:15:18;;;;;;;53.90;28.27;;;;;;;;;;6581533;28;20683;-86
2022/12/04 07:18:29;;;;;;;47.13;24.20;;;;;;;;;;6598259;28;20275;-86
2022/12/04 07:21:40;;;;;;;58.17;28.13;;;;;;;;;;6598387;28;20168;-86
2022/12/04 07:24:50;;;;;;;36.30;20.17;;;;;;;;;;6594680;28;20180;-86
2022/12/04 07:28:01;;;;;;;32.43;17.97;;;;;;;;;;6578362;28;20168;-86
2022/12/04 07:31:15;;;;;;;24.53;14.23;;;;;;;;;;6594415;28;20192;-86
2022/12/04 07:34:25;;;;;;;26.83;16.03;;;;;;;;;;6592704;28;20303;-86
2022/12/04 07:37:36;;;;;;;28.27;15.10;;;;;;;;;;6593574;28;20242;-86
2022/12/04 07:40:46;;;;;;;31.50;17.90;;;;;;;;;;6596433;28;20243;-87
2022/12/04 07:43:56;;;;;;;33.97;19.27;;;;;;;;;;6597929;28;20184;-86
2022/12/04 07:47:07;;;;;;;33.80;20.97;;;;;;;;;;6580051;28;20196;-85
2022/12/04 07:50:17;;;;;;;35.37;17.07;;;;;;;;;;6597772;28;20716;-87
2022/12/04 07:53:27;;;;;;;20.80;12.17;;;;;;;;;;6596679;28;20579;-87
2022/12/04 07:56:37;;;;;;;27.77;17.07;;;;;;;;;;6579376;28;20173;-86
2022/12/04 07:59:48;;;;;;;24.90;13.93;;;;;;;;;;6596367;28;20211;-87
2022/12/04 08:02:58;;;;;;;33.60;19.27;;;;;;;;;;6579253;28;20626;-86
2022/12/04 08:06:08;;;;;;;35.03;20.30;;;;;;;;;;6595890;28;20259;-86
2022/12/04 08:09:19;;;;;;;28.77;17.03;;;;;;;;;;6597311;28;20173;-86
2022/12/04 08:12:30;;;;;;;31.53;16.70;;;;;;;;;;6597130;28;20630;-85
2022/12/04 08:15:40;;;;;;;31.87;18.97;;;;;;;;;;6598183;28;20244;-85
2022/12/04 08:18:52;;;;;;;27.40;15.80;;;;;;;;;;6597427;28;20604;-86
2022/12/04 08:22:02;;;;;;;28.90;16.47;;;;;;;;;;6597244;28;20228;-85
2022/12/04 08:25:12;;;;;;;23.70;13.77;;;;;;;;;;6597015;28;21536;-85
2022/12/04 08:28:22;;;;;;;28.17;14.60;;;;;;;;;;6596443;28;20172;-85
2022/12/04 08:31:34;;;;;;;46.40;21.63;;;;;;;;;;6597138;28;20521;-85
2022/12/04 08:34:44;;;;;;;27.57;15.70;;;;;;;;;;6593638;28;20232;-86
2022/12/04 08:37:55;;;;;;;27.73;15.63;;;;;;;;;;6596399;28;20218;-85
2022/12/04 08:41:06;;;;;;;35.17;19.20;;;;;;;;;;6596547;28;20549;-86
2022/12/04 08:44:17;;;;;;;29.57;16.63;;;;;;;;;;6596483;28;20168;-86
2022/12/04 08:47:27;;;;;;;29.90;17.00;;;;;;;;;;6595446;28;20173;-87
2022/12/04 08:50:42;;;;;;;28.47;16.47;;;;;;;;;;6595272;28;20246;-87
2022/12/04 08:53:57;;;;;;;23.47;15.23;;;;;;;;;;6596343;28;20164;-86
2022/12/04 08:57:07;;;;;;;23.50;13.87;;;;;;;;;;6576244;28;20180;-89
2022/12/04 09:00:18;;;;;;;32.23;18.67;;;;;;;;;;6592374;28;20204;-87
2022/12/04 09:03:28;;;;;;;26.83;16.37;;;;;;;;;;6595738;28;20271;-87
2022/12/04 09:06:38;;;;;;;33.17;19.90;;;;;;;;;;6595466;28;20260;-87
2022/12/04 09:09:49;;;;;;;28.90;17.23;;;;;;;;;;6595947;28;20179;-87
2022/12/04 09:12:59;;;;;;;40.77;21.93;;;;;;;;;;6595294;28;20187;-87
2022/12/04 09:16:15;;;;;;;31.40;17.90;;;;;;;;;;6595086;28;20230;-87
2022/12/04 09:19:25;;;;;;;31.40;19.27;;;;;;;;;;6592102;28;20277;-87
2022/12/04 09:22:36;;;;;;;34.57;20.40;;;;;;;;;;6594470;28;20181;-87
2022/12/04 09:25:46;;;;;;;28.77;18.37;;;;;;;;;;6596013;28;20291;-88
2022/12/04 09:28:58;;;;;;;32.87;21.00;;;;;;;;;;6595340;28;20175;-87
2022/12/04 09:32:08;;;;;;;41.20;26.60;;;;;;;;;;6591940;28;20297;-89
2022/12/04 09:35:18;;;;;;;43.70;28.07;;;;;;;;;;6575038;28;20184;-88
2022/12/04 09:38:29;;;;;;;32.90;19.33;;;;;;;;;;6595100;28;20279;-87
2022/12/04 09:41:45;;;;;;;33.07;19.23;;;;;;;;;;6596240;28;20250;-88
2022/12/04 09:45:02;;;;;;;35.90;19.77;;;;;;;;;;6596123;28;20172;-89
2022/12/04 09:48:15;;;;;;;37.63;21.27;;;;;;;;;;6581761;28;20189;-88
2022/12/04 09:51:26;;;;;;;34.17;18.77;;;;;;;;;;6579348;28;20188;-87
2022/12/04 09:54:39;;;;;;;30.90;18.63;;;;;;;;;;6577849;28;20546;-87
2022/12/04 09:57:51;;;;;;;34.47;21.33;;;;;;;;;;6578720;28;20549;-86
2022/12/04 10:01:02;;;;;;;27.43;15.43;;;;;;;;;;6574060;28;20303;-88
2022/12/04 10:04:13;;;;;;;31.03;16.00;;;;;;;;;;6586549;28;20671;-87
2022/12/04 10:07:25;;;;;;;32.90;17.00;;;;;;;;;;6594784;28;20224;-87
2022/12/04 10:10:40;;;;;;;22.37;11.97;;;;;;;;;;6591559;28;20243;-87
2022/12/04 10:13:59;;;;;;;30.33;16.97;;;;;;;;;;6590507;28;20192;-87
2022/12/04 10:17:26;;;;;;;31.53;17.27;;;;;;;;;;6586518;28;20176;-88
2022/12/04 10:21:12;;;;;;;26.57;15.80;;;;;;;;;;6585833;28;20205;-86
2022/12/04 10:24:27;;;;;;;28.60;17.03;;;;;;;;;;6501502;28;20175;-87
2022/12/04 10:28:04;;;;;;;22.57;13.43;;;;;;;;;;6582216;28;20222;-89
2022/12/04 10:31:14;;;;;;;34.10;19.87;;;;;;;;;;6555633;28;20291;-88
2022/12/04 10:34:27;;;;;;;22.20;14.37;;;;;;;;;;6600028;28;20227;-86
2022/12/04 10:37:39;;;;;;;36.63;20.10;;;;;;;;;;6600347;28;20531;-87
2022/12/04 10:40:52;;;;;;;36.13;20.60;;;;;;;;;;6599893;28;20545;-87
2022/12/04 10:44:03;;;;;;;30.93;18.27;;;;;;;;;;6598664;28;20220;-90
2022/12/04 10:47:14;;;;;;;25.53;16.23;;;;;;;;;;6581348;28;20172;-88
2022/12/04 10:50:24;;;;;;;29.20;18.37;;;;;;;;;;6581575;28;20251;-90
2022/12/04 10:53:35;;;;;;;30.47;18.27;;;;;;;;;;6594654;28;20198;-89
2022/12/04 10:56:50;;;;;;;34.03;17.30;;;;;;;;;;6580553;28;20272;-90
2022/12/04 11:00:00;;;;;;;25.60;15.50;;;;;;;;;;6595844;28;20211;-89
2022/12/04 11:03:27;;;;;;;27.63;16.47;;;;;;;;;;6598153;28;20623;-89
2022/12/04 11:06:37;;;;;;;34.97;19.07;;;;;;;;;;6580253;28;20187;-91
2022/12/04 11:09:58;;;;;;;28.30;16.23;;;;;;;;;;6581874;28;20189;-89
2022/12/04 11:13:12;;;;;;;26.00;17.17;;;;;;;;;;6586530;28;20180;-90
2022/12/04 11:16:31;;;;;;;28.10;16.73;;;;;;;;;;6580689;28;20279;-89
2022/12/04 11:19:42;;;;;;;31.43;17.07;;;;;;;;;;6599682;28;20210;-87
2022/12/04 11:22:58;;;;;;;33.93;20.83;;;;;;;;;;6598545;28;20584;-87
2022/12/04 11:26:09;;;;;;;27.10;16.57;;;;;;;;;;6598046;28;20206;-87
2022/12/04 11:29:23;;;;;;;26.70;15.77;;;;;;;;;;6599227;28;20176;-88
2022/12/04 11:32:34;;;;;;;31.07;18.73;;;;;;;;;;6599205;28;20252;-88
2022/12/04 11:35:52;;;;;;;31.03;18.03;;;;;;;;;;6598551;28;20637;-88
2022/12/04 11:39:05;;;;;;;35.17;18.93;;;;;;;;;;6597168;28;20208;-88
2022/12/04 11:42:18;;;;;;;22.80;13.80;;;;;;;;;;6580731;28;20177;-87
2022/12/04 11:45:28;;;;;;;33.63;17.83;;;;;;;;;;6580842;28;20180;-88
2022/12/04 11:48:43;;;;;;;28.57;16.70;;;;;;;;;;6585937;28;20260;-87
2022/12/04 11:52:19;;;;;;;18.70;11.30;;;;;;;;;;6595946;28;20176;-89
2022/12/04 11:55:49;;;;;;;28.77;13.53;;;;;;;;;;6579147;28;20242;-88
2022/12/04 11:58:59;;;;;;;34.90;20.37;;;;;;;;;;6587538;28;20216;-89
2022/12/04 12:02:30;;;;;;;26.03;15.80;;;;;;;;;;6577271;28;20509;-88
2022/12/04 12:05:59;;;;;;;28.03;17.47;;;;;;;;;;6580754;28;20217;-91
2022/12/04 12:09:31;;;;;;;25.83;15.03;;;;;;;;;;6598293;28;20168;-90
2022/12/04 12:12:42;;;;;;;29.93;18.63;;;;;;;;;;6597617;28;20522;-90
2022/12/04 12:15:58;;;;;;;26.47;17.23;;;;;;;;;;6579931;28;20176;-91
2022/12/04 12:19:09;;;;;;;30.73;18.07;;;;;;;;;;6597082;28;20196;-90
2022/12/04 12:22:39;;;;;;;27.13;15.53;;;;;;;;;;6595637;28;20578;-90
2022/12/04 12:25:55;;;;;;;24.23;15.20;;;;;;;;;;6576876;28;20757;-91
2022/12/04 12:29:13;;;;;;;24.27;15.83;;;;;;;;;;6596406;28;20188;-87
2022/12/04 12:32:53;;;;;;;25.60;16.33;;;;;;;;;;6596101;28;20251;-88
2022/12/04 12:36:08;;;;;;;26.67;17.03;;;;;;;;;;6579560;28;20199;-88
2022/12/04 12:39:22;;;;;;;30.70;16.43;;;;;;;;;;6578416;28;20315;-88
2022/12/04 12:42:39;;;;;;;25.40;15.83;;;;;;;;;;6592863;28;20235;-89
2022/12/04 12:45:52;;;;;;;24.53;14.73;;;;;;;;;;6578366;28;20516;-88
2022/12/04 12:49:05;;;;;;;25.50;16.37;;;;;;;;;;6596908;28;20608;-89
2022/12/04 12:52:23;;;;;;;25.90;16.53;;;;;;;;;;6596067;28;20172;-88
2022/12/04 12:55:43;;;;;;;29.30;17.63;;;;;;;;;;6594034;28;20161;-89
2022/12/04 12:58:56;;;;;;;28.53;18.77;;;;;;;;;;6577935;28;20200;-88
2022/12/04 13:02:12;;;;;;;30.33;18.50;;;;;;;;;;6595755;28;20203;-89
2022/12/04 13:05:32;;;;;;;29.50;17.50;;;;;;;;;;6578614;28;20211;-91
2022/12/04 13:08:43;;;;;;;30.20;19.07;;;;;;;;;;6596799;28;20177;-89
2022/12/04 13:11:57;;;;;;;32.43;20.23;;;;;;;;;;6579526;28;20223;-90
2022/12/04 13:15:12;;;;;;;27.73;17.73;;;;;;;;;;6578897;28;20208;-90
2022/12/04 13:18:22;;;;;;;32.83;21.93;;;;;;;;;;6576706;28;20634;-89
2022/12/04 13:21:36;;;;;;;33.87;22.93;;;;;;;;;;6553864;28;20216;-90
2022/12/04 13:24:46;;;;;;;32.03;20.10;;;;;;;;;;6591573;28;20259;-91
2022/12/04 13:28:02;;;;;;;28.30;18.23;;;;;;;;;;6579191;28;20184;-90
2022/12/04 13:31:23;;;;;;;34.27;22.90;;;;;;;;;;6596194;28;20680;-89
2022/12/04 13:34:46;;;;;;;34.47;21.83;;;;;;;;;;6596017;28;20224;-90
2022/12/04 13:38:15;;;;;;;21.23;16.37;;;;;;;;;;6595505;28;20219;-89
2022/12/04 13:41:26;;;;;;;20.13;13.67;;;;;;;;;;6593278;28;20199;-89
2022/12/04 13:44:36;;;;;;;25.80;16.00;;;;;;;;;;6594774;28;20180;-91
2022/12/04 13:47:54;;;;;;;31.07;17.70;;;;;;;;;;6595067;28;20172;-89
2022/12/04 13:51:24;;;;;;;26.07;15.80;;;;;;;;;;6574579;28;20186;-91
2022/12/04 13:54:35;;;;;;;27.33;15.90;;;;;;;;;;6578023;28;20200;-88
2022/12/04 13:57:52;;;;;;;33.10;19.93;;;;;;;;;;6594690;28;20172;-89
2022/12/04 14:01:11;;;;;;;32.70;18.20;;;;;;;;;;6594611;28;20287;-90
2022/12/04 14:04:23;;;;;;;24.93;15.13;;;;;;;;;;6572790;28;20180;-89
2022/12/04 14:07:38;;;;;;;37.63;21.83;;;;;;;;;;6574204;28;20176;-90
2022/12/04 14:11:00;;;;;;;33.70;18.50;;;;;;;;;;6574414;28;20180;-90
2022/12/04 14:14:25;;;;;;;38.13;23.07;;;;;;;;;;6574733;28;20184;-87
2022/12/04 14:17:38;;;;;;;28.63;16.87;;;;;;;;;;6590581;28;20176;-87
2022/12/04 14:20:56;;;;;;;24.20;14.70;;;;;;;;;;6592997;28;20206;-87
2022/12/04 14:24:36;;;;;;;29.40;16.83;;;;;;;;;;6593722;28;20222;-87
2022/12/04 14:27:50;;;;;;;30.87;18.10;;;;;;;;;;6577579;28;20181;-87
2022/12/04 14:31:04;;;;;;;19.40;12.17;;;;;;;;;;6594838;28;20259;-86
2022/12/04 14:34:22;;;;;;;21.77;12.97;;;;;;;;;;6593169;28;20269;-90
2022/12/04 14:37:38;;;;;;;36.50;21.03;;;;;;;;;;6574949;28;20765;-89
2022/12/04 14:40:50;;;;;;;25.03;13.97;;;;;;;;;;6588924;28;20220;-89
2022/12/04 14:44:00;;;;;;;22.80;14.80;;;;;;;;;;6559177;28;20184;-89
2022/12/04 14:47:14;;;;;;;26.03;16.03;;;;;;;;;;6592673;28;20618;-89
2022/12/04 14:50:24;;;;;;;25.27;16.07;;;;;;;;;;6590871;28;20188;-88
2022/12/04 14:53:45;;;;;;;23.50;15.53;;;;;;;;;;6593819;28;20627;-88
2022/12/04 14:56:55;;;;;;;26.97;15.73;;;;;;;;;;6566389;28;20189;-87
2022/12/04 15:00:13;;;;;;;27.10;16.60;;;;;;;;;;6569979;28;20317;-88
2022/12/04 15:03:25;;;;;;;26.67;17.37;;;;;;;;;;6563161;28;20204;-88
2022/12/04 15:06:37;;;;;;;22.47;14.80;;;;;;;;;;6573579;28;20187;-89
2022/12/04 15:13:27;;;;;;;22.77;13.43;;;;;;;;;;6592361;28;20311;-91
2022/12/04 15:16:37;;;;;;;24.77;14.97;;;;;;;;;;6571680;28;20191;-90
2022/12/04 15:19:48;;;;;;;19.90;12.90;;;;;;;;;;6569831;28;20216;-91
2022/12/04 15:23:00;;;;;;;23.20;15.33;;;;;;;;;;6595081;28;20212;-91
2022/12/04 15:26:13;;;;;;;21.80;14.73;;;;;;;;;;6576231;28;20723;-91
2022/12/04 15:29:29;;;;;;;21.37;13.37;;;;;;;;;;6573479;28;20220;-89
2022/12/04 15:32:39;;;;;;;22.40;14.50;;;;;;;;;;6590145;28;20243;-91
2022/12/04 15:35:56;;;;;;;23.30;14.30;;;;;;;;;;6571504;28;20173;-92
2022/12/04 15:39:07;;;;;;;28.57;16.63;;;;;;;;;;6577038;28;20740;-91
2022/12/04 15:42:20;;;;;;;25.00;15.50;;;;;;;;;;6572415;28;20184;-92
2022/12/04 15:45:33;;;;;;;26.27;15.27;;;;;;;;;;6588262;28;20169;-90
2022/12/04 15:48:43;;;;;;;22.47;13.90;;;;;;;;;;6571807;28;20184;-91
2022/12/04 15:52:12;;;;;;;23.47;14.30;;;;;;;;;;6572686;28;20195;-91
2022/12/04 15:55:23;;;;;;;20.50;11.57;;;;;;;;;;6570329;28;20278;-91
2022/12/04 15:58:40;;;;;;;30.00;17.80;;;;;;;;;;6593200;28;20260;-92
2022/12/04 16:01:50;;;;;;;23.17;13.67;;;;;;;;;;6573463;28;20643;-88
2022/12/04 16:05:36;;;;;;;28.47;16.87;;;;;;;;;;6573213;28;20180;-88
2022/12/04 16:08:49;;;;;;;13.83;8.23;;;;;;;;;;6547554;28;20192;-89
2022/12/04 16:12:01;;;;;;;23.50;13.60;;;;;;;;;;6588581;28;20176;-89
2022/12/04 16:15:11;;;;;;;23.77;16.87;;;;;;;;;;6588629;28;20541;-89
2022/12/04 16:18:21;;;;;;;24.80;15.97;;;;;;;;;;6590887;28;20212;-89
2022/12/04 16:21:33;;;;;;;25.57;15.53;;;;;;;;;;6575040;28;20218;-90
2022/12/04 16:24:44;;;;;;;24.93;16.13;;;;;;;;;;6588864;28;20271;-90
2022/12/04 16:27:54;;;;;;;24.03;14.77;;;;;;;;;;6570985;28;20187;-91
2022/12/04 16:31:05;;;;;;;27.90;16.83;;;;;;;;;;6586403;28;20255;-90
2022/12/04 16:34:15;;;;;;;26.03;13.47;;;;;;;;;;6592574;28;20227;-90
2022/12/04 16:37:27;;;;;;;30.47;18.43;;;;;;;;;;6572922;28;20205;-90
2022/12/04 16:40:37;;;;;;;31.20;18.57;;;;;;;;;;6587131;28;20637;-90
2022/12/04 16:43:54;;;;;;;30.37;17.70;;;;;;;;;;6573115;28;20204;-89
2022/12/04 16:47:05;;;;;;;28.17;15.90;;;;;;;;;;6588101;28;20279;-90
2022/12/04 16:50:15;;;;;;;15.73;9.53;;;;;;;;;;6587523;28;20347;-90
2022/12/04 16:53:25;;;;;;;22.53;12.77;;;;;;;;;;6591037;28;20176;-86
2022/12/04 16:56:36;;;;;;;19.87;12.33;;;;;;;;;;6589951;28;20242;-88
2022/12/04 16:59:46;;;;;;;24.40;14.97;;;;;;;;;;6572931;28;20212;-87
2022/12/04 17:02:57;;;;;;;22.83;14.67;;;;;;;;;;6577412;28;20224;-89
2022/12/04 17:06:07;;;;;;;26.33;15.80;;;;;;;;;;6596823;28;20173;-89
2022/12/04 17:09:17;;;;;;;25.37;14.43;;;;;;;;;;6579357;28;20177;-88
2022/12/04 17:12:28;;;;;;;28.07;14.80;;;;;;;;;;6595118;28;20238;-89
2022/12/04 17:15:38;;;;;;;22.37;13.97;;;;;;;;;;6597043;28;20196;-89
2022/12/04 17:18:49;;;;;;;26.83;16.73;;;;;;;;;;6581285;28;20559;-89
2022/12/04 17:22:00;;;;;;;63.33;35.87;;;;;;;;;;6587085;28;20558;-88
2022/12/04 17:25:10;;;;;;;39.27;26.40;;;;;;;;;;6588435;28;20203;-89
2022/12/04 17:28:20;;;;;;;46.43;30.00;;;;;;;;;;6578018;28;20704;-89
2022/12/04 17:31:31;;;;;;;43.97;28.43;;;;;;;;;;6593991;28;20237;-91
2022/12/04 17:34:41;;;;;;;49.00;29.17;;;;;;;;;;6576330;28;20232;-89
2022/12/04 17:37:51;;;;;;;38.50;25.90;;;;;;;;;;6594184;28;20232;-89
2022/12/04 17:41:03;;;;;;;31.07;18.47;;;;;;;;;;6593716;28;20701;-88
2022/12/04 17:44:13;;;;;;;37.20;19.73;;;;;;;;;;6575759;28;20184;-90
2022/12/04 17:47:23;;;;;;;27.07;17.00;;;;;;;;;;6595301;28;20175;-89
2022/12/04 17:50:34;;;;;;;25.73;15.87;;;;;;;;;;6593767;28;20719;-89
2022/12/04 17:53:44;;;;;;;25.10;14.87;;;;;;;;;;6594702;28;20204;-90
2022/12/04 17:56:54;;;;;;;27.13;15.40;;;;;;;;;;6578042;28;20180;-90
2022/12/04 18:00:05;;;;;;;25.70;15.73;;;;;;;;;;6595874;28;20681;-90
2022/12/04 18:03:15;;;;;;;28.90;18.80;;;;;;;;;;6577941;28;20180;-90
2022/12/04 18:06:33;;;;;;;29.57;16.50;;;;;;;;;;6594870;28;20593;-89
2022/12/04 18:09:43;;;;;;;30.33;18.70;;;;;;;;;;6593226;28;20216;-90
2022/12/04 18:12:54;;;;;;;26.73;16.43;;;;;;;;;;6574787;28;20186;-90
2022/12/04 18:16:05;;;;;;;28.27;16.57;;;;;;;;;;6577913;28;20195;-90
2022/12/04 18:19:15;;;;;;;35.60;20.57;;;;;;;;;;6596442;28;20227;-91
2022/12/04 18:22:26;;;;;;;21.40;14.03;;;;;;;;;;6595623;28;20593;-90
2022/12/04 18:25:36;;;;;;;32.27;19.27;;;;;;;;;;6577791;28;20188;-91
2022/12/04 18:28:47;;;;;;;22.67;14.93;;;;;;;;;;6595020;28;20199;-90
2022/12/04 18:31:57;;;;;;;24.20;13.23;;;;;;;;;;6576441;28;20172;-91
2022/12/04 18:35:08;;;;;;;21.87;14.17;;;;;;;;;;6576668;28;20184;-91
2022/12/04 18:38:18;;;;;;;24.23;14.43;;;;;;;;;;6576719;28;20200;-91
2022/12/04 18:41:28;;;;;;;26.43;15.87;;;;;;;;;;6594243;28;20231;-91
2022/12/04 18:44:39;;;;;;;25.23;14.67;;;;;;;;;;6579763;28;20171;-91
2022/12/04 18:47:49;;;;;;;23.83;16.03;;;;;;;;;;6581846;28;20175;-90
2022/12/04 18:51:00;;;;;;;19.10;13.00;;;;;;;;;;6599365;28;20294;-91
2022/12/04 18:54:12;;;;;;;23.23;14.97;;;;;;;;;;6581622;28;20176;-91
2022/12/04 18:57:23;;;;;;;26.93;15.47;;;;;;;;;;6581361;28;20177;-91
2022/12/04 19:00:33;;;;;;;23.27;13.77;;;;;;;;;;6599177;28;20601;-92